createdAt,value
2019-04-11T00:01:08.278Z,16.10
2019-04-11T00:03:37.606Z,14.07
2019-04-11T00:06:06.196Z,14.43
2019-04-11T00:08:35.811Z,14.17
2019-04-11T00:11:05.939Z,12.73
2019-04-11T00:13:36.326Z,14.70
2019-04-11T00:16:04.893Z,13.80
2019-04-11T00:18:34.490Z,12.57
2019-04-11T00:21:03.042Z,12.43
2019-04-11T00:23:32.363Z,13.73
2019-04-11T00:26:02.065Z,14.30
2019-04-11T00:28:31.912Z,13.53
2019-04-11T00:31:00.843Z,13.03
2019-04-11T00:33:29.939Z,12.80
2019-04-11T00:35:58.416Z,13.77
2019-04-11T00:38:26.835Z,12.07
2019-04-11T00:40:55.428Z,12.43
2019-04-11T00:43:31.559Z,14.10
2019-04-11T00:45:54.116Z,12.07
2019-04-11T00:48:23.785Z,14.73
2019-04-11T00:50:52.437Z,13.00
2019-04-11T00:53:20.857Z,11.37
2019-04-11T00:55:49.429Z,12.43
2019-04-11T00:58:17.888Z,14.60
2019-04-11T01:00:47.153Z,12.27
2019-04-11T01:03:15.633Z,13.23
2019-04-11T01:05:44.426Z,12.93
2019-04-11T01:08:13.685Z,12.70
2019-04-11T01:10:43.499Z,12.83
2019-04-11T01:13:14.110Z,14.90
2019-04-11T01:15:44.787Z,13.30
2019-04-11T01:18:13.943Z,12.60
2019-04-11T01:20:42.608Z,12.53
2019-04-11T01:23:11.393Z,12.70
2019-04-11T01:25:40.931Z,13.50
2019-04-11T01:28:10.196Z,12.10
2019-04-11T01:30:49.457Z,12.70
2019-04-11T01:33:17.891Z,12.53
2019-04-11T01:35:46.316Z,14.70
2019-04-11T01:38:14.990Z,11.67
2019-04-11T01:40:43.493Z,14.03
2019-04-11T01:43:12.044Z,12.27
2019-04-11T01:45:41.333Z,14.30
2019-04-11T01:48:13.966Z,12.37
2019-04-11T01:50:43.272Z,12.93
2019-04-11T01:53:12.963Z,15.87
2019-04-11T01:55:41.532Z,12.80
2019-04-11T01:58:10.847Z,12.60
2019-04-11T02:00:54.524Z,12.13
2019-04-11T02:03:25.444Z,13.10
2019-04-11T02:05:54.077Z,12.23
2019-04-11T02:08:23.054Z,16.23
2019-04-11T02:10:52.862Z,11.83
2019-04-11T02:13:21.424Z,12.70
2019-04-11T02:15:49.857Z,13.87
2019-04-11T02:18:19.346Z,14.40
2019-04-11T02:20:47.864Z,13.93
2019-04-11T02:23:19.936Z,12.23
2019-04-11T02:26:05.745Z,12.53
2019-04-11T02:28:34.913Z,14.33
2019-04-11T02:31:05.386Z,12.73
2019-04-11T02:33:34.842Z,12.70
2019-04-11T02:36:05.064Z,12.17
2019-04-11T02:38:34.776Z,12.17
2019-04-11T02:41:05.936Z,12.03
2019-04-11T02:43:36.313Z,12.10
2019-04-11T02:46:11.848Z,12.60
2019-04-11T02:48:35.545Z,12.17
2019-04-11T02:51:07.280Z,12.27
2019-04-11T02:53:36.783Z,13.37
2019-04-11T02:56:06.241Z,12.00
2019-04-11T02:58:36.928Z,15.03
2019-04-11T03:01:07.424Z,13.10
2019-04-11T03:03:37.389Z,11.33
2019-04-11T03:06:07.140Z,12.50
2019-04-11T03:08:36.764Z,11.63
2019-04-11T03:11:07.754Z,13.43
2019-04-11T03:13:38.081Z,13.30
2019-04-11T03:16:23.804Z,14.07
2019-04-11T03:18:54.766Z,13.43
2019-04-11T03:21:13.796Z,12.90
2019-04-11T03:23:39.231Z,12.33
2019-04-11T03:26:09.852Z,12.50
2019-04-11T03:28:40.632Z,13.13
2019-04-11T03:31:42.590Z,13.70
2019-04-11T03:34:38.977Z,13.30
2019-04-11T03:39:00.288Z,12.83
2019-04-11T03:41:26.848Z,19.63
2019-04-11T03:43:51.041Z,12.90
2019-04-11T03:46:30.203Z,12.67
2019-04-11T03:48:53.373Z,12.30
2019-04-11T03:51:12.970Z,12.10
2019-04-11T03:53:44.874Z,12.63
2019-04-11T03:56:13.945Z,11.37
2019-04-11T03:58:43.822Z,12.27
2019-04-11T04:01:13.986Z,14.23
2019-04-11T04:03:44.573Z,12.77
2019-04-11T04:06:14.682Z,11.77
2019-04-11T04:08:44.446Z,13.87
2019-04-11T04:11:26.700Z,12.47
2019-04-11T04:14:01.457Z,10.97
2019-04-11T04:16:40.363Z,12.70
2019-04-11T04:19:11.695Z,11.43
2019-04-11T04:21:50.970Z,13.43
2019-04-11T04:24:25.145Z,11.43
2019-04-11T04:26:56.788Z,12.07
2019-04-11T04:29:26.763Z,11.13
2019-04-11T04:31:57.253Z,10.80
2019-04-11T04:34:26.045Z,11.33
2019-04-11T04:36:55.719Z,11.50
2019-04-11T04:39:27.102Z,10.97
2019-04-11T04:42:01.195Z,11.80
2019-04-11T04:44:26.511Z,11.50
2019-04-11T04:47:07.735Z,11.97
2019-04-11T04:49:25.270Z,12.27
2019-04-11T04:51:55.492Z,13.20
2019-04-11T04:54:24.136Z,12.40
2019-04-11T04:56:54.508Z,13.07
2019-04-11T04:59:23.733Z,14.43
2019-04-11T05:01:53.343Z,13.47
2019-04-11T05:04:23.436Z,14.80
2019-04-11T05:06:52.956Z,14.17
2019-04-11T05:09:23.592Z,12.70
2019-04-11T05:11:53.100Z,14.10
2019-04-11T05:14:25.372Z,12.77
2019-04-11T05:16:54.609Z,12.40
2019-04-11T05:19:23.785Z,12.93
2019-04-11T05:21:52.345Z,13.70
2019-04-11T05:24:20.893Z,16.20
2019-04-11T05:26:50.343Z,12.90
2019-04-11T05:29:19.562Z,13.77
2019-04-11T05:31:49.126Z,13.27
2019-04-11T05:34:18.292Z,13.30
2019-04-11T05:36:47.195Z,13.63
2019-04-11T05:39:17.402Z,12.60
2019-04-11T05:41:47.172Z,13.50
2019-04-11T05:44:16.757Z,12.53
2019-04-11T05:46:55.839Z,12.07
2019-04-11T05:49:23.274Z,13.70
2019-04-11T05:51:58.637Z,13.20
2019-04-11T05:54:28.139Z,13.83
2019-04-11T05:56:59.518Z,14.30
2019-04-11T05:59:29.154Z,13.57
2019-04-11T06:02:05.217Z,13.43
2019-04-11T06:04:34.383Z,15.80
2019-04-11T06:07:08.521Z,16.80
2019-04-11T06:09:41.534Z,12.23
2019-04-11T06:12:27.556Z,13.50
2019-04-11T06:14:57.742Z,12.50
2019-04-11T06:17:26.162Z,15.10
2019-04-11T06:20:12.599Z,15.10
2019-04-11T06:22:42.782Z,13.47
2019-04-11T06:25:25.822Z,13.63
2019-04-11T06:27:56.484Z,15.77
2019-04-11T06:30:32.602Z,13.67
2019-04-11T06:33:12.267Z,14.23
2019-04-11T06:35:58.751Z,16.97
2019-04-11T06:38:28.798Z,13.80
2019-04-11T06:41:01.995Z,16.07
2019-04-11T06:43:32.196Z,13.30
2019-04-11T06:46:11.132Z,18.57
2019-04-11T06:48:58.150Z,13.70
2019-04-11T06:51:44.167Z,14.30
2019-04-11T06:54:21.082Z,14.57
2019-04-11T06:56:52.103Z,14.93
2019-04-11T06:59:25.895Z,14.27
2019-04-11T07:02:07.558Z,14.13
2019-04-11T07:04:30.660Z,14.13
2019-04-11T07:07:00.799Z,14.77
2019-04-11T07:09:31.021Z,16.10
2019-04-11T07:12:17.669Z,15.27
2019-04-11T07:14:57.967Z,12.73
2019-04-11T07:17:44.112Z,14.00
2019-04-11T07:20:31.348Z,14.50
2019-04-11T07:23:17.618Z,15.30
2019-04-11T07:25:47.737Z,14.53
2019-04-11T07:28:18.687Z,16.33
2019-04-11T07:31:07.835Z,13.33
2019-04-11T07:33:43.094Z,16.90
2019-04-11T07:36:29.557Z,13.60
2019-04-11T07:38:59.891Z,13.90
2019-04-11T07:41:39.401Z,14.30
2019-04-11T07:44:13.127Z,14.50
2019-04-11T07:46:55.937Z,15.37
2019-04-11T07:49:35.051Z,15.23
2019-04-11T07:52:06.693Z,12.93
2019-04-11T07:54:37.000Z,14.57
2019-04-11T07:57:23.151Z,17.63
2019-04-11T08:00:02.209Z,16.37
2019-04-11T08:02:47.779Z,19.00
2019-04-11T08:05:34.600Z,18.90
2019-04-11T08:08:06.303Z,17.60
2019-04-11T08:10:39.369Z,17.87
2019-04-11T08:13:10.182Z,15.03
2019-04-11T08:15:56.473Z,17.40
2019-04-11T08:18:26.801Z,16.10
2019-04-11T08:20:57.446Z,14.70
2019-04-11T08:23:26.396Z,15.53
2019-04-11T08:25:57.561Z,17.30
2019-04-11T08:28:26.915Z,16.60
2019-04-11T08:31:08.646Z,15.03
2019-04-11T08:33:38.335Z,15.40
2019-04-11T08:36:21.915Z,18.23
2019-04-11T08:38:50.894Z,16.20
2019-04-11T08:41:23.896Z,15.57
2019-04-11T08:43:53.205Z,15.00
2019-04-11T08:46:26.789Z,17.00
2019-04-11T08:48:59.945Z,15.50
2019-04-11T08:51:31.467Z,18.90
2019-04-11T08:54:09.018Z,18.13
2019-04-11T08:56:39.355Z,22.23
2019-04-11T08:59:13.479Z,16.50
2019-04-11T09:01:42.438Z,17.20
2019-04-11T09:04:13.754Z,15.67
2019-04-11T09:06:43.021Z,16.60
2019-04-11T09:09:19.118Z,17.20
2019-04-11T09:11:49.475Z,22.87
2019-04-11T09:14:36.005Z,18.60
2019-04-11T09:17:14.956Z,15.93
2019-04-11T09:19:45.325Z,17.53
2019-04-11T09:22:27.300Z,18.10
2019-04-11T09:24:57.357Z,17.90
2019-04-11T09:27:43.408Z,17.10
2019-04-11T09:30:32.679Z,17.00
2019-04-11T09:33:08.860Z,17.40
2019-04-11T09:35:51.272Z,18.23
2019-04-11T09:38:22.170Z,18.77
2019-04-11T09:40:52.355Z,16.77
2019-04-11T09:43:26.284Z,17.57
2019-04-11T09:46:12.625Z,17.37
2019-04-11T09:48:46.343Z,18.13
2019-04-11T09:51:28.483Z,15.97
2019-04-11T09:53:57.202Z,17.57
2019-04-11T09:56:36.387Z,18.00
2019-04-11T09:59:23.543Z,18.20
2019-04-11T10:02:00.316Z,17.13
2019-04-11T10:04:31.863Z,16.80
2019-04-11T10:07:17.998Z,16.47
2019-04-11T10:09:48.450Z,16.93
2019-04-11T10:12:34.642Z,20.53
2019-04-11T10:15:05.119Z,16.33
2019-04-11T10:17:42.350Z,14.90
2019-04-11T10:20:12.827Z,16.67
2019-04-11T10:22:52.246Z,21.03
2019-04-11T10:25:25.347Z,16.90
2019-04-11T10:28:11.573Z,20.47
2019-04-11T10:30:57.982Z,18.50
2019-04-11T10:33:42.550Z,16.87
2019-04-11T10:36:23.055Z,20.33
2019-04-11T10:38:53.272Z,19.93
2019-04-11T10:41:26.082Z,18.50
2019-04-11T10:43:54.496Z,17.43
2019-04-11T10:46:41.685Z,19.90
2019-04-11T10:49:14.569Z,17.47
2019-04-11T10:51:50.839Z,17.57
2019-04-11T10:54:19.749Z,19.00
2019-04-11T10:57:06.150Z,20.83
2019-04-11T10:59:39.129Z,21.60
2019-04-11T11:02:12.670Z,19.97
2019-04-11T11:04:43.050Z,18.17
2019-04-11T11:07:13.076Z,20.60
2019-04-11T11:09:46.378Z,20.63
2019-04-11T11:12:23.195Z,20.33
2019-04-11T11:15:05.171Z,20.77
2019-04-11T11:18:20.717Z,21.33
2019-04-11T11:20:47.680Z,19.63
2019-04-11T11:23:28.904Z,30.33
2019-04-11T11:26:04.898Z,28.77
2019-04-11T11:28:38.641Z,19.70
2019-04-11T11:31:18.124Z,23.00
2019-04-11T11:33:46.919Z,19.63
2019-04-11T11:36:32.085Z,19.80
2019-04-11T11:39:00.861Z,20.47
2019-04-11T11:41:47.038Z,20.50
2019-04-11T11:44:15.959Z,19.13
2019-04-11T11:47:00.027Z,20.87
2019-04-11T11:49:41.480Z,19.20
2019-04-11T11:52:06.680Z,20.27
2019-04-11T11:54:39.843Z,19.40
2019-04-11T11:57:10.843Z,18.73
2019-04-11T11:59:40.922Z,20.37
2019-04-11T12:02:16.798Z,25.47
2019-04-11T12:04:51.989Z,24.03
2019-04-11T12:07:23.087Z,24.03
2019-04-11T12:10:09.513Z,22.37
2019-04-11T12:12:42.473Z,21.57
2019-04-11T12:15:26.601Z,24.17
2019-04-11T12:17:59.665Z,20.27
2019-04-11T12:20:39.462Z,23.20
2019-04-11T12:23:10.840Z,20.50
2019-04-11T12:25:41.138Z,22.13
2019-04-11T12:28:13.695Z,23.93
2019-04-11T12:30:45.613Z,18.53
2019-04-11T12:33:25.685Z,19.50
2019-04-11T12:36:01.523Z,22.00
2019-04-11T12:38:34.032Z,20.20
2019-04-11T12:41:12.677Z,21.97
2019-04-11T12:43:45.841Z,22.40
2019-04-11T12:46:31.925Z,19.70
2019-04-11T12:49:18.038Z,20.03
2019-04-11T12:52:04.238Z,19.67
2019-04-11T12:54:34.369Z,19.20
2019-04-11T12:57:10.178Z,19.83
2019-04-11T12:59:38.684Z,21.33
2019-04-11T13:02:24.683Z,33.70
2019-04-11T13:04:53.139Z,19.87
2019-04-11T13:07:29.273Z,19.00
2019-04-11T13:09:59.296Z,18.53
2019-04-11T13:12:31.925Z,20.73
2019-04-11T13:15:04.400Z,19.93
2019-04-11T13:17:34.507Z,19.20
2019-04-11T13:20:07.623Z,17.57
2019-04-11T13:22:36.132Z,18.70
2019-04-11T13:25:23.783Z,18.70
2019-04-11T13:27:53.964Z,17.40
2019-04-11T13:30:29.811Z,18.50
2019-04-11T13:32:58.587Z,18.30
2019-04-11T13:35:28.717Z,18.80
2019-04-11T13:38:14.580Z,19.43
2019-04-11T13:40:44.648Z,19.83
2019-04-11T13:43:15.219Z,19.53
2019-04-11T13:45:45.328Z,16.70
2019-04-11T13:48:31.694Z,18.47
2019-04-11T13:51:01.859Z,18.20
2019-04-11T13:53:40.672Z,18.60
2019-04-11T13:56:10.571Z,20.90
2019-04-11T13:58:46.388Z,20.07
2019-04-11T14:01:14.831Z,20.40
2019-04-11T14:03:44.951Z,41.30
2019-04-11T14:06:17.594Z,25.73
2019-04-11T14:08:50.421Z,17.00
2019-04-11T14:11:29.207Z,21.53
2019-04-11T14:13:59.301Z,18.43
2019-04-11T14:16:29.967Z,46.30
2019-04-11T14:19:11.757Z,19.87
2019-04-11T14:21:43.263Z,19.27
2019-04-11T14:24:28.768Z,19.70
2019-04-11T14:26:58.977Z,20.73
2019-04-11T14:29:29.196Z,21.70
2019-04-11T14:31:59.362Z,20.73
2019-04-11T14:34:32.146Z,20.50
2019-04-11T14:37:02.245Z,18.23
2019-04-11T14:39:38.385Z,21.83
2019-04-11T14:42:12.083Z,20.57
2019-04-11T14:44:42.066Z,18.40
2019-04-11T14:47:20.844Z,18.90
2019-04-11T14:49:51.323Z,19.10
2019-04-11T14:52:30.393Z,18.17
2019-04-11T14:54:59.004Z,19.03
2019-04-11T14:57:29.082Z,19.00
2019-04-11T14:59:59.144Z,18.97
2019-04-11T15:02:34.790Z,20.37
2019-04-11T15:05:06.238Z,17.03
2019-04-11T15:07:36.437Z,19.23
2019-04-11T15:10:23.939Z,17.77
2019-04-11T15:12:53.660Z,18.93
2019-04-11T15:15:40.054Z,19.10
2019-04-11T15:18:08.483Z,16.13
2019-04-11T15:20:54.643Z,15.90
2019-04-11T15:23:30.848Z,18.90
2019-04-11T15:26:08.198Z,16.23
2019-04-11T15:28:38.532Z,18.73
2019-04-11T15:31:11.377Z,16.77
2019-04-11T15:33:57.959Z,19.03
2019-04-11T15:36:50.282Z,18.73
2019-04-11T15:39:44.282Z,17.93
2019-04-11T15:42:10.390Z,20.93
2019-04-11T15:44:46.305Z,19.37
2019-04-11T15:47:18.842Z,18.83
2019-04-11T15:50:03.033Z,18.43
2019-04-11T15:52:31.459Z,18.97
2019-04-11T15:55:19.426Z,18.90
2019-04-11T15:57:47.862Z,19.10
2019-04-11T16:00:18.184Z,20.40
2019-04-11T16:02:48.259Z,16.77
2019-04-11T16:05:18.378Z,18.33
2019-04-11T16:08:08.556Z,20.47
2019-04-11T16:10:41.792Z,18.97
2019-04-11T16:13:11.136Z,19.20
2019-04-11T16:15:41.258Z,19.83
2019-04-11T16:18:23.449Z,20.40
2019-04-11T16:20:53.556Z,18.30
2019-04-11T16:23:25.763Z,18.63
2019-04-11T16:25:53.785Z,20.30
2019-04-11T16:28:23.890Z,16.67
2019-04-11T16:30:54.041Z,17.70
2019-04-11T16:33:26.851Z,17.60
2019-04-11T16:35:57.752Z,19.03
2019-04-11T16:38:43.965Z,19.47
2019-04-11T16:41:17.108Z,17.90
2019-04-11T16:43:50.194Z,17.40
2019-04-11T16:46:36.473Z,18.73
2019-04-11T16:49:04.969Z,20.03
2019-04-11T16:51:33.444Z,19.73
2019-04-11T16:54:01.867Z,19.80
2019-04-11T16:56:30.284Z,18.73
2019-04-11T16:58:58.775Z,17.67
2019-04-11T17:01:27.213Z,19.37
2019-04-11T17:03:55.771Z,19.73
2019-04-11T17:06:26.479Z,19.00
2019-04-11T17:08:56.997Z,20.90
2019-04-11T17:11:27.090Z,18.63
2019-04-11T17:13:57.466Z,18.93
2019-04-11T17:16:29.938Z,17.70
2019-04-11T17:18:56.167Z,17.83
2019-04-11T17:21:24.795Z,18.40
2019-04-11T17:23:53.395Z,17.50
2019-04-11T17:26:23.206Z,19.90
2019-04-11T17:28:54.351Z,17.10
2019-04-11T17:31:25.733Z,22.33
2019-04-11T17:33:56.680Z,19.33
2019-04-11T17:36:25.667Z,19.03
2019-04-11T17:38:54.412Z,17.43
2019-04-11T17:41:23.062Z,19.60
2019-04-11T17:43:51.933Z,18.67
2019-04-11T17:46:20.588Z,19.53
2019-04-11T17:48:50.434Z,18.47
2019-04-11T17:51:19.179Z,16.73
2019-04-11T17:53:47.617Z,17.43
2019-04-11T17:56:17.023Z,17.60
2019-04-11T17:58:45.517Z,16.53
2019-04-11T18:01:14.066Z,17.60
2019-04-11T18:03:42.706Z,16.80
2019-04-11T18:06:11.250Z,16.83
2019-04-11T18:08:39.869Z,15.80
2019-04-11T18:11:08.345Z,17.03
2019-04-11T18:13:36.865Z,18.37
2019-04-11T18:16:05.351Z,18.63
2019-04-11T18:18:35.210Z,18.27
2019-04-11T18:21:07.015Z,17.60
2019-04-11T18:23:35.932Z,15.53
2019-04-11T18:26:04.760Z,17.27
2019-04-11T18:28:33.285Z,16.67
2019-04-11T18:31:01.818Z,17.73
2019-04-11T18:33:31.741Z,18.23
2019-04-11T18:36:02.243Z,18.93
2019-04-11T18:38:32.059Z,15.50
2019-04-11T18:41:01.143Z,18.17
2019-04-11T18:43:29.641Z,17.93
2019-04-11T18:45:58.101Z,16.67
2019-04-11T18:48:26.645Z,16.03
2019-04-11T18:50:55.192Z,16.43
2019-04-11T18:53:23.802Z,15.43
2019-04-11T18:55:52.320Z,15.23
2019-04-11T18:58:20.761Z,16.70
2019-04-11T19:00:49.385Z,15.57
2019-04-11T19:03:18.117Z,15.87
2019-04-11T19:05:46.705Z,16.87
2019-04-11T19:08:15.292Z,16.30
2019-04-11T19:10:45.806Z,15.70
2019-04-11T19:13:16.698Z,17.27
2019-04-11T19:15:45.817Z,15.37
2019-04-11T19:18:16.519Z,16.50
2019-04-11T19:20:45.231Z,16.10
2019-04-11T19:23:13.768Z,15.10
2019-04-11T19:25:44.569Z,16.23
2019-04-11T19:28:12.528Z,15.83
2019-04-11T19:30:42.407Z,15.00
2019-04-11T19:33:10.973Z,16.00
2019-04-11T19:35:41.628Z,15.20
2019-04-11T19:38:12.266Z,16.67
2019-04-11T19:40:41.309Z,17.30
2019-04-11T19:43:09.892Z,17.07
2019-04-11T19:45:38.321Z,15.83
2019-04-11T19:48:06.910Z,17.03
2019-04-11T19:50:35.411Z,15.67
2019-04-11T19:53:03.920Z,16.83
2019-04-11T19:55:49.044Z,14.30
2019-04-11T19:58:19.306Z,14.70
2019-04-11T20:00:53.054Z,16.30
2019-04-11T20:03:18.093Z,15.10
2019-04-11T20:05:46.622Z,15.00
2019-04-11T20:08:15.113Z,14.83
2019-04-11T20:10:43.608Z,15.37
2019-04-11T20:13:12.121Z,14.37
2019-04-11T20:15:42.505Z,15.10
2019-04-11T20:18:10.939Z,15.33
2019-04-11T20:20:39.490Z,16.13
2019-04-11T20:23:10.578Z,14.67
2019-04-11T20:25:38.115Z,15.10
2019-04-11T20:28:06.591Z,16.23
2019-04-11T20:30:35.047Z,17.07
2019-04-11T20:33:03.801Z,16.97
2019-04-11T20:35:32.357Z,14.97
2019-04-11T20:38:00.777Z,14.07
2019-04-11T20:40:29.235Z,15.33
2019-04-11T20:42:57.731Z,14.53
2019-04-11T20:45:28.688Z,12.70
2019-04-11T20:47:59.813Z,14.87
2019-04-11T20:50:27.917Z,15.60
2019-04-11T20:52:56.348Z,13.73
2019-04-11T20:55:24.807Z,15.60
2019-04-11T20:57:53.269Z,14.43
2019-04-11T21:00:22.092Z,16.27
2019-04-11T21:02:50.550Z,15.90
2019-04-11T21:05:18.987Z,15.27
2019-04-11T21:07:47.417Z,14.50
2019-04-11T21:10:16.035Z,14.93
2019-04-11T21:12:44.560Z,14.40
2019-04-11T21:15:13.452Z,14.87
2019-04-11T21:17:41.901Z,14.60
2019-04-11T21:20:10.707Z,15.57
2019-04-11T21:22:39.125Z,13.03
2019-04-11T21:25:10.778Z,13.60
2019-04-11T21:27:39.210Z,14.70
2019-04-11T21:30:07.881Z,17.90
2019-04-11T21:32:36.392Z,15.43
2019-04-11T21:35:06.566Z,13.53
2019-04-11T21:37:36.735Z,15.20
2019-04-11T21:40:09.048Z,12.80
2019-04-11T21:42:37.567Z,13.83
2019-04-11T21:45:06.989Z,14.87
2019-04-11T21:47:37.156Z,12.80
2019-04-11T21:50:09.673Z,13.50
2019-04-11T21:52:37.334Z,13.33
2019-04-11T21:55:06.025Z,13.83
2019-04-11T21:57:34.476Z,13.20
2019-04-11T22:00:03.261Z,13.83
2019-04-11T22:02:31.782Z,13.90
2019-04-11T22:05:00.320Z,12.60
2019-04-11T22:07:30.810Z,13.10
2019-04-11T22:09:58.979Z,13.60
2019-04-11T22:12:27.485Z,14.27
2019-04-11T22:14:56.045Z,14.03
2019-04-11T22:17:24.489Z,14.17
2019-04-11T22:19:52.931Z,14.07
2019-04-11T22:22:21.424Z,12.93
2019-04-11T22:24:49.839Z,12.90
2019-04-11T22:27:22.027Z,12.70
2019-04-11T22:29:48.534Z,13.03
2019-04-11T22:32:17.058Z,12.87
2019-04-11T22:34:46.261Z,13.60
2019-04-11T22:37:14.792Z,13.90
2019-04-11T22:39:43.227Z,12.70
2019-04-11T22:42:11.730Z,13.53
2019-04-11T22:44:40.156Z,14.17
2019-04-11T22:47:08.681Z,13.80
2019-04-11T22:49:39.405Z,12.27
2019-04-11T22:52:07.339Z,11.73
2019-04-11T22:54:35.797Z,12.77
2019-04-11T22:57:04.391Z,12.60
2019-04-11T22:59:32.845Z,12.67
2019-04-11T23:02:03.027Z,12.90
2019-04-11T23:04:31.471Z,13.13
2019-04-11T23:06:59.908Z,12.80
2019-04-11T23:09:28.385Z,12.30
2019-04-11T23:11:56.846Z,12.47
2019-04-11T23:14:25.299Z,12.20
2019-04-11T23:16:53.727Z,12.10
2019-04-11T23:19:22.147Z,11.00
2019-04-11T23:21:50.567Z,12.83
2019-04-11T23:24:19.008Z,11.73
2019-04-11T23:26:47.444Z,12.60
2019-04-11T23:29:16.589Z,12.33
2019-04-11T23:31:45.143Z,12.90
2019-04-11T23:34:13.599Z,12.57
2019-04-11T23:36:43.672Z,12.90
2019-04-11T23:39:12.121Z,12.67
2019-04-11T23:41:40.532Z,14.27
2019-04-11T23:44:08.969Z,13.53
2019-04-11T23:46:37.411Z,13.10
2019-04-11T23:49:05.904Z,13.10
2019-04-11T23:51:34.501Z,11.70
2019-04-11T23:54:02.917Z,14.67
2019-04-11T23:56:31.399Z,13.10
2019-04-11T23:59:01.978Z,12.77
